Time;durP1;ratioP1;P1;durP2;ratioP2;P2;SDS_P1;SDS_P2;PMS_P1;PMS_P2;Temp;Humidity;BMP_temperature;BMP_pressure;BME280_temperature;BME280_humidity;BME280_pressure;Samples;Min_cycle;Max_cycle;Signal;HPM_P1;HPM_P2
2023/06/20 00:00:49;;;;;;;16.90;10.30;;;;;;;;;;110366;1276;22107;-77
2023/06/20 00:03:35;;;;;;;14.10;9.10;;;;;;;;;;110484;1276;22092;-77
2023/06/20 00:06:02;;;;;;;13.60;8.90;;;;;;;;;;110494;1259;22875;-77
2023/06/20 00:08:29;;;;;;;15.30;9.70;;;;;;;;;;110627;1276;22079;-77
2023/06/20 00:10:55;;;;;;;13.10;9.10;;;;;;;;;;110461;1276;22209;-77
2023/06/20 00:13:23;;;;;;;16.00;9.70;;;;;;;;;;110476;1276;22131;-77
2023/06/20 00:15:50;;;;;;;15.30;10.70;;;;;;;;;;110654;1260;22899;-77
2023/06/20 00:18:17;;;;;;;16.20;10.00;;;;;;;;;;110483;1276;23217;-77
2023/06/20 00:20:47;;;;;;;14.80;10.20;;;;;;;;;;110481;1276;22150;-77
2023/06/20 00:23:14;;;;;;;17.40;10.60;;;;;;;;;;110336;1276;22567;-77
2023/06/20 00:25:40;;;;;;;15.10;10.30;;;;;;;;;;110335;1276;22130;-77
2023/06/20 00:28:08;;;;;;;14.90;9.90;;;;;;;;;;110563;1260;22149;-77
2023/06/20 00:30:35;;;;;;;13.90;9.50;;;;;;;;;;110476;1276;22106;-77
2023/06/20 00:33:02;;;;;;;16.10;10.30;;;;;;;;;;110249;1276;22121;-78
2023/06/20 00:35:28;;;;;;;16.50;10.70;;;;;;;;;;110326;1276;22105;-78
2023/06/20 00:37:55;;;;;;;14.20;10.20;;;;;;;;;;110586;1260;22122;-77
2023/06/20 00:40:22;;;;;;;17.70;11.30;;;;;;;;;;110469;1276;22897;-77
2023/06/20 00:42:48;;;;;;;18.80;11.30;;;;;;;;;;110426;1276;22109;-77
2023/06/20 00:45:34;;;;;;;15.30;10.60;;;;;;;;;;110253;1276;22119;-77
2023/06/20 00:48:03;;;;;;;16.50;11.20;;;;;;;;;;110326;1270;22752;-78
2023/06/20 00:50:31;;;;;;;17.90;11.40;;;;;;;;;;110443;1276;22121;-77
2023/06/20 00:52:59;;;;;;;15.00;10.50;;;;;;;;;;110567;1273;22580;-77
2023/06/20 00:55:27;;;;;;;17.10;10.60;;;;;;;;;;110275;1276;22180;-77
2023/06/20 00:57:56;;;;;;;16.00;10.60;;;;;;;;;;110700;1268;22114;-77
2023/06/20 01:00:23;;;;;;;16.80;11.10;;;;;;;;;;110449;1276;22828;-77
2023/06/20 01:02:53;;;;;;;18.20;10.50;;;;;;;;;;110430;1276;22097;-77
2023/06/20 01:05:26;;;;;;;16.60;11.10;;;;;;;;;;110421;1277;22892;-77
2023/06/20 01:07:58;;;;;;;17.20;10.80;;;;;;;;;;110487;1262;22847;-77
2023/06/20 01:10:30;;;;;;;17.00;11.20;;;;;;;;;;110449;1276;22103;-77
2023/06/20 01:13:00;;;;;;;15.40;10.70;;;;;;;;;;110543;1276;22103;-77
2023/06/20 01:15:47;;;;;;;16.70;11.00;;;;;;;;;;110427;1276;22570;-77
2023/06/20 01:18:25;;;;;;;15.70;10.20;;;;;;;;;;110636;1260;22027;-77
2023/06/20 01:20:56;;;;;;;16.20;10.60;;;;;;;;;;110440;1276;22110;-77
2023/06/20 01:23:29;;;;;;;14.80;10.20;;;;;;;;;;110255;1276;22898;-78
2023/06/20 01:26:04;;;;;;;15.00;10.30;;;;;;;;;;110446;1276;21908;-78
2023/06/20 01:28:52;;;;;;;17.30;10.70;;;;;;;;;;110570;1260;22935;-78
2023/06/20 01:31:22;;;;;;;16.60;10.60;;;;;;;;;;110429;1276;22091;-77
2023/06/20 01:33:53;;;;;;;17.50;10.40;;;;;;;;;;110467;1276;22125;-78
2023/06/20 01:36:21;;;;;;;20.20;11.10;;;;;;;;;;110361;1275;22073;-78
2023/06/20 01:38:50;;;;;;;17.80;10.70;;;;;;;;;;110582;1257;22622;-78
2023/06/20 01:41:23;;;;;;;19.80;10.60;;;;;;;;;;110450;1276;22754;-78
2023/06/20 01:43:51;;;;;;;16.80;10.00;;;;;;;;;;110476;1276;22113;-78
2023/06/20 01:46:22;;;;;;;17.90;10.70;;;;;;;;;;110256;1278;22133;-78
2023/06/20 01:48:50;;;;;;;19.50;10.70;;;;;;;;;;110222;1261;22129;-77
2023/06/20 01:51:17;;;;;;;17.40;10.70;;;;;;;;;;110194;1277;22857;-78
2023/06/20 01:53:46;;;;;;;20.80;11.60;;;;;;;;;;110234;1273;22122;-78
2023/06/20 01:56:16;;;;;;;18.30;11.80;;;;;;;;;;110156;1277;22124;-78
2023/06/20 01:58:49;;;;;;;18.80;11.50;;;;;;;;;;110301;1260;22866;-78
2023/06/20 02:01:19;;;;;;;22.30;13.80;;;;;;;;;;110338;1277;22047;-77
2023/06/20 02:03:47;;;;;;;24.60;14.50;;;;;;;;;;110375;1277;22794;-77
2023/06/20 02:06:15;;;;;;;21.40;12.80;;;;;;;;;;110380;1276;22047;-77
2023/06/20 02:08:42;;;;;;;23.80;14.20;;;;;;;;;;110368;1260;22160;-77
2023/06/20 02:11:10;;;;;;;23.40;13.50;;;;;;;;;;110310;1277;22116;-78
2023/06/20 02:13:38;;;;;;;22.80;14.30;;;;;;;;;;110181;1277;22119;-78
2023/06/20 02:16:06;;;;;;;22.70;14.20;;;;;;;;;;110219;1277;22160;-77
2023/06/20 02:18:33;;;;;;;18.00;12.60;;;;;;;;;;110231;1257;22136;-78
2023/06/20 02:21:06;;;;;;;20.40;12.60;;;;;;;;;;110189;1278;22816;-78
2023/06/20 02:23:34;;;;;;;20.40;12.10;;;;;;;;;;110181;1277;22808;-77
2023/06/20 02:26:07;;;;;;;19.60;12.40;;;;;;;;;;110178;1276;22135;-78
2023/06/20 02:28:54;;;;;;;21.10;12.20;;;;;;;;;;110338;1254;22123;-78
2023/06/20 02:31:27;;;;;;;18.20;11.70;;;;;;;;;;110250;1277;22103;-78
2023/06/20 02:33:57;;;;;;;17.70;11.00;;;;;;;;;;110368;1277;22120;-78
2023/06/20 02:36:29;;;;;;;19.90;12.10;;;;;;;;;;110245;1277;22854;-77
2023/06/20 02:38:58;;;;;;;17.80;12.20;;;;;;;;;;110305;1260;22476;-78
2023/06/20 02:41:25;;;;;;;17.80;11.80;;;;;;;;;;110396;1277;22122;-78
2023/06/20 02:43:54;;;;;;;17.70;11.00;;;;;;;;;;110112;1278;22099;-78
2023/06/20 02:46:27;;;;;;;18.40;11.70;;;;;;;;;;110180;1278;22132;-78
2023/06/20 02:49:11;;;;;;;19.60;11.40;;;;;;;;;;110288;1257;22263;-78
2023/06/20 02:52:03;;;;;;;21.10;11.00;;;;;;;;;;110139;1279;22097;-78
2023/06/20 02:55:01;;;;;;;20.70;11.40;;;;;;;;;;110277;1278;22142;-78
2023/06/20 02:57:31;;;;;;;19.30;11.00;;;;;;;;;;110207;1278;22180;-77
2023/06/20 03:00:10;;;;;;;19.20;10.70;;;;;;;;;;110391;1257;22828;-77
2023/06/20 03:02:50;;;;;;;17.80;10.30;;;;;;;;;;110167;1278;22012;-78
2023/06/20 03:05:20;;;;;;;21.60;10.80;;;;;;;;;;110204;1274;22882;-78
2023/06/20 03:07:50;;;;;;;20.20;10.40;;;;;;;;;;110173;1278;22257;-77
2023/06/20 03:10:20;;;;;;;18.60;10.40;;;;;;;;;;110392;1257;22095;-77
2023/06/20 03:12:51;;;;;;;18.90;10.80;;;;;;;;;;110138;1278;22137;-77
2023/06/20 03:15:22;;;;;;;19.50;9.90;;;;;;;;;;110161;1278;22832;-78
2023/06/20 03:17:51;;;;;;;20.50;11.30;;;;;;;;;;110172;1279;22111;-77
2023/06/20 03:20:20;;;;;;;20.20;11.80;;;;;;;;;;110276;1257;22115;-77
2023/06/20 03:22:51;;;;;;;20.90;12.00;;;;;;;;;;110149;1278;22120;-77
2023/06/20 03:25:20;;;;;;;17.30;11.40;;;;;;;;;;110176;1278;22095;-77
2023/06/20 03:27:49;;;;;;;20.00;11.40;;;;;;;;;;110155;1278;22103;-77
2023/06/20 03:30:18;;;;;;;18.20;10.20;;;;;;;;;;110249;1260;22299;-78
2023/06/20 03:32:50;;;;;;;16.70;10.00;;;;;;;;;;110145;1278;22090;-77
2023/06/20 03:35:20;;;;;;;16.60;9.90;;;;;;;;;;110194;1276;22203;-78
2023/06/20 03:37:50;;;;;;;20.70;11.20;;;;;;;;;;110062;1278;22126;-77
2023/06/20 03:40:19;;;;;;;18.90;10.60;;;;;;;;;;110187;1257;22113;-78
2023/06/20 03:49:57;;;;;;;17.60;10.30;;;;;;;;;;103944;1292;545717;-84
2023/06/20 03:52:24;;;;;;;23.10;10.20;;;;;;;;;;106038;1288;22798;-78
2023/06/20 03:54:50;;;;;;;17.20;10.90;;;;;;;;;;106508;1270;24257;-77
2023/06/20 03:57:17;;;;;;;17.80;10.10;;;;;;;;;;106486;1280;22564;-77
2023/06/20 03:59:44;;;;;;;16.60;9.90;;;;;;;;;;106484;1266;24233;-82
2023/06/20 04:02:13;;;;;;;17.20;9.90;;;;;;;;;;106608;1280;26497;-83
2023/06/20 04:04:40;;;;;;;19.60;11.10;;;;;;;;;;104526;1278;3118954;-80
2023/06/20 04:07:08;;;;;;;19.60;10.60;;;;;;;;;;106790;1278;22524;-78
2023/06/20 04:09:37;;;;;;;19.30;10.10;;;;;;;;;;106799;1263;25300;-81
2023/06/20 04:12:04;;;;;;;25.30;10.30;;;;;;;;;;106818;1278;25321;-82
2023/06/20 04:14:31;;;;;;;39.40;10.90;;;;;;;;;;106694;1278;23998;-80
2023/06/20 04:16:58;;;;;;;30.50;10.20;;;;;;;;;;106841;1278;25213;-79
2023/06/20 04:19:24;;;;;;;15.20;9.30;;;;;;;;;;106824;1268;22524;-79
2023/06/20 04:21:53;;;;;;;26.90;10.90;;;;;;;;;;106779;1278;22527;-85
2023/06/20 04:24:22;;;;;;;26.80;10.60;;;;;;;;;;106828;1275;22523;-81
2023/06/20 04:26:49;;;;;;;22.00;10.80;;;;;;;;;;106882;1278;22526;-81
2023/06/20 04:29:16;;;;;;;28.00;11.90;;;;;;;;;;110240;1267;22404;-78
2023/06/20 04:31:42;;;;;;;27.10;11.10;;;;;;;;;;110285;1262;22035;-78
2023/06/20 04:34:10;;;;;;;27.50;10.60;;;;;;;;;;110231;1278;22935;-78
2023/06/20 04:36:36;;;;;;;29.50;12.60;;;;;;;;;;110236;1278;22957;-78
2023/06/20 04:39:08;;;;;;;35.20;13.30;;;;;;;;;;110186;1278;22112;-78
2023/06/20 04:41:35;;;;;;;31.50;13.00;;;;;;;;;;110343;1260;22095;-79
2023/06/20 04:44:03;;;;;;;18.70;9.50;;;;;;;;;;110160;1279;22124;-78
2023/06/20 04:46:29;;;;;;;25.10;10.00;;;;;;;;;;110242;1279;22111;-78
2023/06/20 04:48:56;;;;;;;21.50;9.40;;;;;;;;;;110123;1279;22101;-78
2023/06/20 04:51:23;;;;;;;15.10;9.70;;;;;;;;;;110157;1262;22805;-78
2023/06/20 04:53:50;;;;;;;20.80;10.20;;;;;;;;;;110140;1279;22766;-78
2023/06/20 04:56:16;;;;;;;16.90;9.00;;;;;;;;;;110170;1277;22118;-78
2023/06/20 04:58:45;;;;;;;17.10;9.40;;;;;;;;;;110104;1266;22942;-79
2023/06/20 05:01:14;;;;;;;20.90;9.50;;;;;;;;;;110223;1262;22114;-79
2023/06/20 05:03:45;;;;;;;22.30;8.60;;;;;;;;;;110147;1268;22125;-79
2023/06/20 05:06:17;;;;;;;18.20;8.70;;;;;;;;;;110165;1280;22106;-79
2023/06/20 05:08:44;;;;;;;14.50;8.60;;;;;;;;;;110225;1280;22111;-79
2023/06/20 05:11:14;;;;;;;14.10;9.30;;;;;;;;;;110084;1263;22773;-79
2023/06/20 05:13:41;;;;;;;14.40;8.30;;;;;;;;;;110110;1280;22441;-79
2023/06/20 05:16:08;;;;;;;15.10;9.00;;;;;;;;;;110145;1280;22107;-79
2023/06/20 05:18:37;;;;;;;17.60;8.50;;;;;;;;;;110135;1280;22173;-79
2023/06/20 05:21:04;;;;;;;16.90;8.90;;;;;;;;;;110217;1262;22944;-79
2023/06/20 05:23:31;;;;;;;19.80;9.10;;;;;;;;;;110082;1280;22013;-79
2023/06/20 05:25:58;;;;;;;25.60;9.30;;;;;;;;;;110409;1277;22214;-79
2023/06/20 05:28:25;;;;;;;19.30;9.90;;;;;;;;;;110474;1277;22075;-78
2023/06/20 05:30:52;;;;;;;21.00;9.60;;;;;;;;;;110308;1254;22137;-79
2023/06/20 05:33:21;;;;;;;35.90;9.80;;;;;;;;;;110574;1276;22572;-78
2023/06/20 05:35:48;;;;;;;29.80;9.90;;;;;;;;;;110549;1276;22089;-79
2023/06/20 05:38:15;;;;;;;20.30;8.80;;;;;;;;;;110444;1276;22776;-78
2023/06/20 05:40:43;;;;;;;19.10;9.30;;;;;;;;;;110604;1276;22331;-79
2023/06/20 05:43:10;;;;;;;17.10;9.10;;;;;;;;;;110415;1260;22065;-79
2023/06/20 05:45:36;;;;;;;19.40;8.70;;;;;;;;;;110447;1276;22119;-78
2023/06/20 05:48:03;;;;;;;15.80;8.20;;;;;;;;;;110566;1276;22231;-79
2023/06/20 05:50:30;;;;;;;19.30;8.90;;;;;;;;;;110359;1276;22118;-78
2023/06/20 05:52:57;;;;;;;15.90;8.40;;;;;;;;;;110395;1259;22103;-79
2023/06/20 05:55:23;;;;;;;16.80;8.20;;;;;;;;;;110322;1276;22799;-79
2023/06/20 05:57:50;;;;;;;13.80;7.70;;;;;;;;;;110305;1276;23555;-79
2023/06/20 06:00:21;;;;;;;15.90;8.70;;;;;;;;;;110365;1276;22099;-78
2023/06/20 06:02:49;;;;;;;18.90;8.50;;;;;;;;;;110538;1267;22968;-79
2023/06/20 06:05:18;;;;;;;14.10;8.40;;;;;;;;;;110550;1276;22110;-78
2023/06/20 06:07:45;;;;;;;12.50;7.90;;;;;;;;;;110448;1276;22115;-79
2023/06/20 06:10:11;;;;;;;17.60;8.60;;;;;;;;;;110440;1276;22102;-79
2023/06/20 06:12:40;;;;;;;15.40;8.00;;;;;;;;;;110632;1269;22165;-78
2023/06/20 06:15:08;;;;;;;14.40;8.60;;;;;;;;;;110316;1276;22608;-78
2023/06/20 06:17:34;;;;;;;13.20;7.80;;;;;;;;;;110290;1276;22108;-79
2023/06/20 06:20:03;;;;;;;12.80;8.00;;;;;;;;;;110368;1267;22271;-78
2023/06/20 06:22:30;;;;;;;14.60;7.70;;;;;;;;;;110436;1270;22763;-79
2023/06/20 06:24:57;;;;;;;15.10;7.70;;;;;;;;;;110450;1276;22270;-78
2023/06/20 06:27:24;;;;;;;25.40;8.80;;;;;;;;;;110530;1276;22139;-78
2023/06/20 06:29:50;;;;;;;17.60;8.60;;;;;;;;;;110528;1276;22186;-79
2023/06/20 06:32:20;;;;;;;15.40;7.90;;;;;;;;;;110357;1259;22790;-79
2023/06/20 06:34:48;;;;;;;17.70;7.80;;;;;;;;;;110449;1276;22131;-79
2023/06/20 06:37:15;;;;;;;14.80;8.60;;;;;;;;;;110441;1276;22189;-79
2023/06/20 06:39:43;;;;;;;14.00;7.60;;;;;;;;;;110338;1276;22110;-79
2023/06/20 06:42:10;;;;;;;18.70;8.90;;;;;;;;;;110435;1253;23084;-78
2023/06/20 06:44:36;;;;;;;15.80;8.60;;;;;;;;;;110374;1276;21983;-79
2023/06/20 06:47:03;;;;;;;14.10;7.50;;;;;;;;;;110335;1276;22762;-80
2023/06/20 06:49:31;;;;;;;18.70;8.50;;;;;;;;;;110449;1276;22739;-79
2023/06/20 06:51:58;;;;;;;15.60;8.00;;;;;;;;;;110363;1276;22096;-79
2023/06/20 06:54:24;;;;;;;20.30;8.80;;;;;;;;;;110303;1257;22863;-78
2023/06/20 06:56:52;;;;;;;25.30;9.20;;;;;;;;;;110293;1276;22225;-79
2023/06/20 06:59:19;;;;;;;17.00;8.90;;;;;;;;;;110269;1276;22117;-79
2023/06/20 07:01:46;;;;;;;16.70;8.00;;;;;;;;;;110357;1276;22099;-78
2023/06/20 07:04:14;;;;;;;13.40;7.70;;;;;;;;;;110517;1260;22132;-78
2023/06/20 07:06:41;;;;;;;15.10;8.00;;;;;;;;;;110353;1276;23080;-77
2023/06/20 07:09:08;;;;;;;13.90;7.80;;;;;;;;;;110389;1276;22944;-78
2023/06/20 07:11:35;;;;;;;13.00;7.40;;;;;;;;;;110444;1276;22278;-78
2023/06/20 07:14:02;;;;;;;12.40;7.80;;;;;;;;;;110794;1256;22874;-78
2023/06/20 07:16:31;;;;;;;10.70;7.20;;;;;;;;;;110540;1276;22883;-78
2023/06/20 07:18:58;;;;;;;13.50;8.00;;;;;;;;;;110367;1276;22136;-78
2023/06/20 07:21:25;;;;;;;11.10;7.90;;;;;;;;;;110447;1276;22070;-77
2023/06/20 07:23:52;;;;;;;11.60;7.50;;;;;;;;;;110484;1260;22799;-77
2023/06/20 07:26:19;;;;;;;12.40;7.50;;;;;;;;;;110352;1276;22117;-77
2023/06/20 07:28:46;;;;;;;11.30;7.70;;;;;;;;;;110302;1276;23012;-77
2023/06/20 07:31:18;;;;;;;12.70;8.10;;;;;;;;;;110532;1276;22117;-77
2023/06/20 07:33:45;;;;;;;11.40;7.50;;;;;;;;;;110547;1258;22106;-78
2023/06/20 07:36:13;;;;;;;14.60;7.40;;;;;;;;;;110356;1276;22119;-77
2023/06/20 07:38:39;;;;;;;12.10;7.60;;;;;;;;;;110459;1276;22104;-77
2023/06/20 07:41:06;;;;;;;10.70;7.20;;;;;;;;;;110431;1276;22819;-79
2023/06/20 07:43:33;;;;;;;15.10;7.40;;;;;;;;;;110432;1254;22184;-78
2023/06/20 07:46:00;;;;;;;13.40;7.00;;;;;;;;;;110228;1277;22880;-79
2023/06/20 07:48:29;;;;;;;11.00;7.10;;;;;;;;;;110294;1277;21988;-78
2023/06/20 07:50:56;;;;;;;10.80;6.40;;;;;;;;;;110395;1277;22812;-77
2023/06/20 07:53:23;;;;;;;21.60;8.20;;;;;;;;;;110389;1253;23768;-78
2023/06/20 07:55:51;;;;;;;10.60;7.60;;;;;;;;;;110333;1277;22099;-77
2023/06/20 07:58:19;;;;;;;14.00;7.90;;;;;;;;;;110450;1276;22125;-78
2023/06/20 08:00:46;;;;;;;11.30;7.20;;;;;;;;;;110330;1277;22113;-77
2023/06/20 08:03:12;;;;;;;10.70;6.90;;;;;;;;;;110313;1277;22124;-78
2023/06/20 08:05:40;;;;;;;10.90;7.00;;;;;;;;;;110491;1259;22117;-78
2023/06/20 08:08:06;;;;;;;10.80;7.20;;;;;;;;;;110436;1277;22110;-78
2023/06/20 08:10:33;;;;;;;11.40;7.20;;;;;;;;;;110339;1277;22104;-78
2023/06/20 08:13:00;;;;;;;11.30;7.20;;;;;;;;;;110331;1277;22078;-78
2023/06/20 08:15:27;;;;;;;12.20;7.50;;;;;;;;;;110395;1260;22189;-78
2023/06/20 08:17:53;;;;;;;12.00;7.80;;;;;;;;;;110446;1277;22122;-78
2023/06/20 08:20:20;;;;;;;12.30;7.70;;;;;;;;;;110355;1277;22753;-78
2023/06/20 08:22:47;;;;;;;8.80;6.40;;;;;;;;;;110437;1277;22652;-78
2023/06/20 08:25:14;;;;;;;9.70;7.10;;;;;;;;;;110245;1260;22843;-78
2023/06/20 08:27:44;;;;;;;9.70;6.90;;;;;;;;;;110357;1277;22804;-77
2023/06/20 08:30:11;;;;;;;12.40;6.80;;;;;;;;;;110341;1277;22139;-78
2023/06/20 08:32:42;;;;;;;11.00;7.60;;;;;;;;;;110358;1276;22133;-77
2023/06/20 08:35:09;;;;;;;11.10;7.00;;;;;;;;;;110665;1254;22762;-78
2023/06/20 08:37:37;;;;;;;10.50;6.90;;;;;;;;;;110328;1277;22112;-78
2023/06/20 08:40:08;;;;;;;9.50;6.60;;;;;;;;;;110434;1277;22110;-78
2023/06/20 08:42:35;;;;;;;10.00;6.90;;;;;;;;;;110392;1278;22176;-78
2023/06/20 08:45:02;;;;;;;9.90;6.60;;;;;;;;;;110452;1259;22121;-78
2023/06/20 08:47:29;;;;;;;11.40;6.70;;;;;;;;;;110348;1277;22085;-78
2023/06/20 08:49:57;;;;;;;9.30;6.10;;;;;;;;;;110424;1278;22773;-78
2023/06/20 08:52:29;;;;;;;11.00;6.80;;;;;;;;;;110378;1277;22120;-78
2023/06/20 08:54:56;;;;;;;11.20;7.00;;;;;;;;;;110449;1254;22139;-78
2023/06/20 08:57:23;;;;;;;10.70;7.10;;;;;;;;;;110357;1277;22316;-78
2023/06/20 08:59:51;;;;;;;11.30;7.30;;;;;;;;;;110368;1278;22126;-77
2023/06/20 09:02:18;;;;;;;12.00;7.40;;;;;;;;;;110412;1278;22319;-78
2023/06/20 09:04:59;;;;;;;9.90;6.90;;;;;;;;;;110331;1278;23146;-80
2023/06/20 09:07:32;;;;;;;10.90;7.60;;;;;;;;;;110284;1260;22886;-78
2023/06/20 09:10:00;;;;;;;10.60;7.50;;;;;;;;;;110280;1277;22203;-78
2023/06/20 09:12:27;;;;;;;11.30;7.50;;;;;;;;;;110421;1277;22793;-77
2023/06/20 09:14:54;;;;;;;10.50;7.30;;;;;;;;;;110375;1278;22110;-78
2023/06/20 09:17:20;;;;;;;11.80;7.50;;;;;;;;;;110358;1257;22120;-78
2023/06/20 09:19:47;;;;;;;10.40;6.70;;;;;;;;;;110372;1277;22112;-78
2023/06/20 09:22:17;;;;;;;10.00;7.10;;;;;;;;;;110305;1277;22567;-78
2023/06/20 09:24:45;;;;;;;10.50;7.50;;;;;;;;;;110289;1277;22114;-78
2023/06/20 09:27:12;;;;;;;12.00;7.40;;;;;;;;;;110433;1257;22141;-79
2023/06/20 09:30:00;;;;;;;9.90;7.20;;;;;;;;;;110358;1277;22121;-78
2023/06/20 09:32:31;;;;;;;13.90;7.30;;;;;;;;;;110320;1277;22095;-78
2023/06/20 09:35:01;;;;;;;9.60;7.20;;;;;;;;;;110158;1277;22112;-79
2023/06/20 09:37:34;;;;;;;9.90;6.50;;;;;;;;;;110545;1257;22796;-79
2023/06/20 09:40:06;;;;;;;9.80;7.10;;;;;;;;;;110425;1276;22155;-79
2023/06/20 09:42:33;;;;;;;9.50;7.40;;;;;;;;;;110317;1277;22154;-79
2023/06/20 09:45:01;;;;;;;9.70;7.20;;;;;;;;;;110126;1274;22240;-78
2023/06/20 09:47:28;;;;;;;10.30;6.80;;;;;;;;;;110423;1260;22199;-79
2023/06/20 09:49:57;;;;;;;10.00;6.80;;;;;;;;;;110207;1278;22096;-79
2023/06/20 09:52:38;;;;;;;10.00;6.70;;;;;;;;;;110174;1278;22113;-81
2023/06/20 09:55:08;;;;;;;11.30;7.70;;;;;;;;;;110211;1276;22126;-78
2023/06/20 09:57:42;;;;;;;10.70;7.50;;;;;;;;;;110452;1257;21998;-77
2023/06/20 10:00:16;;;;;;;13.50;8.10;;;;;;;;;;110227;1278;22104;-79
2023/06/20 10:02:44;;;;;;;13.10;7.20;;;;;;;;;;110359;1278;21805;-78
2023/06/20 10:05:13;;;;;;;12.40;8.30;;;;;;;;;;110283;1278;22178;-78
2023/06/20 10:07:42;;;;;;;9.40;7.20;;;;;;;;;;110476;1257;22171;-78
2023/06/20 10:10:10;;;;;;;11.20;6.80;;;;;;;;;;110196;1278;22105;-78
2023/06/20 10:12:38;;;;;;;10.80;7.10;;;;;;;;;;110207;1278;22968;-77
2023/06/20 10:15:09;;;;;;;12.70;6.90;;;;;;;;;;110324;1278;22141;-79
2023/06/20 10:17:40;;;;;;;10.00;7.20;;;;;;;;;;110351;1256;22193;-78
2023/06/20 10:20:08;;;;;;;9.50;6.60;;;;;;;;;;110344;1272;22102;-78
2023/06/20 10:22:37;;;;;;;16.20;6.80;;;;;;;;;;110383;1278;22097;-78
2023/06/20 10:25:11;;;;;;;10.60;6.40;;;;;;;;;;110136;1278;22802;-78
2023/06/20 10:27:39;;;;;;;15.50;7.10;;;;;;;;;;110478;1254;22786;-78
2023/06/20 10:30:07;;;;;;;9.80;6.40;;;;;;;;;;110302;1278;22124;-77
2023/06/20 10:32:37;;;;;;;16.00;7.20;;;;;;;;;;110217;1278;22112;-77
2023/06/20 10:35:09;;;;;;;10.70;7.20;;;;;;;;;;110288;1276;22110;-77
2023/06/20 10:37:39;;;;;;;11.10;7.00;;;;;;;;;;110369;1260;22279;-78
2023/06/20 10:40:09;;;;;;;11.30;7.70;;;;;;;;;;110178;1278;22832;-79
2023/06/20 10:42:42;;;;;;;9.60;6.90;;;;;;;;;;110313;1278;22339;-79
2023/06/20 10:45:18;;;;;;;14.60;7.80;;;;;;;;;;110332;1278;22826;-78
2023/06/20 10:47:47;;;;;;;10.20;7.20;;;;;;;;;;110243;1256;22039;-78
2023/06/20 10:50:19;;;;;;;8.50;6.40;;;;;;;;;;110215;1278;22723;-78
2023/06/20 10:52:49;;;;;;;9.00;6.10;;;;;;;;;;110188;1278;22092;-78
2023/06/20 10:55:28;;;;;;;10.10;7.50;;;;;;;;;;110178;1278;22854;-78
2023/06/20 10:57:57;;;;;;;9.40;6.50;;;;;;;;;;110215;1257;22888;-78
2023/06/20 11:00:28;;;;;;;10.70;6.60;;;;;;;;;;110160;1278;22122;-79
2023/06/20 11:02:59;;;;;;;9.40;6.70;;;;;;;;;;110204;1278;22783;-79
2023/06/20 11:05:30;;;;;;;9.00;6.40;;;;;;;;;;110125;1278;22112;-78
2023/06/20 11:08:08;;;;;;;10.40;6.70;;;;;;;;;;110246;1257;22577;-78
2023/06/20 11:10:39;;;;;;;17.00;13.10;;;;;;;;;;110347;1278;22108;-78
2023/06/20 11:13:08;;;;;;;14.40;8.90;;;;;;;;;;110198;1268;21998;-78
2023/06/20 11:15:37;;;;;;;10.30;6.80;;;;;;;;;;110304;1278;22875;-80
2023/06/20 11:18:07;;;;;;;16.70;12.40;;;;;;;;;;110281;1259;22183;-80
2023/06/20 11:20:37;;;;;;;14.10;8.90;;;;;;;;;;110350;1278;22248;-80
2023/06/20 11:23:12;;;;;;;10.60;8.00;;;;;;;;;;110342;1278;22435;-79
2023/06/20 11:25:42;;;;;;;10.10;7.10;;;;;;;;;;110187;1263;22129;-79
2023/06/20 11:28:16;;;;;;;9.50;7.30;;;;;;;;;;110267;1256;22182;-79
2023/06/20 11:30:47;;;;;;;12.00;8.10;;;;;;;;;;110139;1278;22121;-80
2023/06/20 11:33:16;;;;;;;11.40;7.80;;;;;;;;;;110181;1278;22124;-80
2023/06/20 11:35:46;;;;;;;8.90;6.40;;;;;;;;;;110155;1278;22327;-80
2023/06/20 11:38:19;;;;;;;9.80;6.80;;;;;;;;;;110296;1256;22140;-80
2023/06/20 11:40:51;;;;;;;9.90;6.80;;;;;;;;;;110183;1274;22345;-80
2023/06/20 11:50:23;;;;;;;8.30;6.00;;;;;;;;;;103955;1292;545300;-83
2023/06/20 11:52:57;;;;;;;12.90;6.70;;;;;;;;;;106868;1277;24367;-81
2023/06/20 11:55:43;;;;;;;11.00;6.50;;;;;;;;;;106959;1278;22526;-80
2023/06/20 11:58:09;;;;;;;12.30;7.00;;;;;;;;;;106833;1278;25231;-83
2023/06/20 12:00:36;;;;;;;10.70;7.00;;;;;;;;;;107052;1259;24243;-81
2023/06/20 12:03:08;;;;;;;10.40;6.90;;;;;;;;;;104440;1276;3388808;-80
2023/06/20 12:05:35;;;;;;;9.10;6.50;;;;;;;;;;106988;1276;22494;-79
2023/06/20 12:08:03;;;;;;;9.10;6.60;;;;;;;;;;107173;1269;23118;-79
2023/06/20 12:10:30;;;;;;;8.50;6.20;;;;;;;;;;107028;1268;22530;-82
2023/06/20 12:13:01;;;;;;;9.80;6.20;;;;;;;;;;106921;1276;25359;-83
2023/06/20 12:15:28;;;;;;;11.90;6.80;;;;;;;;;;106975;1276;22525;-82
2023/06/20 12:17:54;;;;;;;8.90;6.00;;;;;;;;;;106990;1276;23870;-79
2023/06/20 12:20:22;;;;;;;17.10;7.20;;;;;;;;;;106977;1258;24196;-84
2023/06/20 12:22:52;;;;;;;9.40;6.60;;;;;;;;;;106980;1272;22534;-81
2023/06/20 12:25:18;;;;;;;9.30;6.70;;;;;;;;;;107254;1276;22647;-83
2023/06/20 12:27:45;;;;;;;9.30;6.70;;;;;;;;;;107080;1276;22784;-79
2023/06/20 12:30:12;;;;;;;8.80;6.80;;;;;;;;;;107099;1276;25290;-82
2023/06/20 12:32:38;;;;;;;10.10;7.00;;;;;;;;;;106993;1276;22523;-79
2023/06/20 12:35:05;;;;;;;9.80;6.20;;;;;;;;;;107000;1276;22789;-80
2023/06/20 12:37:32;;;;;;;10.40;7.10;;;;;;;;;;107089;1275;22538;-83
2023/06/20 12:39:59;;;;;;;9.30;6.70;;;;;;;;;;107001;1254;22522;-81
2023/06/20 12:42:26;;;;;;;9.90;6.90;;;;;;;;;;107027;1276;22533;-84
2023/06/20 12:44:52;;;;;;;17.00;9.00;;;;;;;;;;106906;1276;25287;-79
2023/06/20 12:47:19;;;;;;;17.70;11.60;;;;;;;;;;106947;1276;22537;-84
2023/06/20 12:49:49;;;;;;;14.90;11.50;;;;;;;;;;106968;1276;25236;-82
2023/06/20 12:52:17;;;;;;;11.50;7.20;;;;;;;;;;107095;1257;22617;-80
2023/06/20 12:54:46;;;;;;;9.10;6.90;;;;;;;;;;106702;1277;22490;-81
2023/06/20 12:57:14;;;;;;;8.60;6.00;;;;;;;;;;106721;1276;22527;-78
2023/06/20 12:59:41;;;;;;;10.10;7.30;;;;;;;;;;106701;1277;24346;-83
2023/06/20 13:02:08;;;;;;;8.90;6.30;;;;;;;;;;106735;1262;22524;-83
2023/06/20 13:04:35;;;;;;;9.10;6.40;;;;;;;;;;107102;1277;24342;-80
2023/06/20 13:07:03;;;;;;;10.40;6.60;;;;;;;;;;106983;1277;25281;-80
2023/06/20 13:09:30;;;;;;;10.20;6.70;;;;;;;;;;106946;1277;22519;-84
2023/06/20 13:11:57;;;;;;;10.00;6.50;;;;;;;;;;106951;1259;24234;-81
2023/06/20 13:14:26;;;;;;;12.40;6.70;;;;;;;;;;106796;1277;23129;-83
2023/06/20 13:16:53;;;;;;;12.40;8.20;;;;;;;;;;106860;1277;22759;-81
2023/06/20 13:19:21;;;;;;;12.00;6.80;;;;;;;;;;106945;1277;22631;-83
2023/06/20 13:21:49;;;;;;;10.20;6.50;;;;;;;;;;106851;1275;26493;-81
2023/06/20 13:24:16;;;;;;;10.60;6.90;;;;;;;;;;106907;1277;22527;-82
2023/06/20 13:26:43;;;;;;;8.70;6.20;;;;;;;;;;106992;1270;22621;-80
2023/06/20 13:29:13;;;;;;;9.60;6.50;;;;;;;;;;107017;1277;22570;-79
2023/06/20 13:31:40;;;;;;;10.40;6.60;;;;;;;;;;106844;1271;25430;-83
2023/06/20 13:34:07;;;;;;;8.90;6.40;;;;;;;;;;106774;1277;22540;-83
2023/06/20 13:36:37;;;;;;;10.10;6.00;;;;;;;;;;106943;1276;22517;-80
2023/06/20 13:39:04;;;;;;;10.10;6.60;;;;;;;;;;106982;1277;24217;-81
2023/06/20 13:41:32;;;;;;;10.70;6.70;;;;;;;;;;106886;1254;22662;-84
2023/06/20 13:43:59;;;;;;;10.10;6.70;;;;;;;;;;106884;1277;21784;-81
2023/06/20 13:46:26;;;;;;;9.60;6.50;;;;;;;;;;106941;1277;23666;-82
2023/06/20 13:48:53;;;;;;;11.00;7.30;;;;;;;;;;106873;1277;24224;-79
2023/06/20 13:51:20;;;;;;;11.80;7.10;;;;;;;;;;106956;1277;25301;-80
2023/06/20 13:53:52;;;;;;;9.60;6.30;;;;;;;;;;107095;1277;22554;-81
2023/06/20 13:56:19;;;;;;;11.90;6.50;;;;;;;;;;107107;1275;22737;-86
2023/06/20 13:58:46;;;;;;;9.50;6.60;;;;;;;;;;106846;1275;22595;-82
2023/06/20 14:01:13;;;;;;;11.80;6.40;;;;;;;;;;107225;1275;25372;-80
2023/06/20 14:03:40;;;;;;;9.10;6.50;;;;;;;;;;106965;1259;22539;-85
2023/06/20 14:06:09;;;;;;;9.30;6.30;;;;;;;;;;106952;1275;25432;-83
2023/06/20 14:08:36;;;;;;;8.50;6.20;;;;;;;;;;107022;1275;24362;-83
2023/06/20 14:11:03;;;;;;;9.70;6.20;;;;;;;;;;106941;1275;22558;-80
2023/06/20 14:13:32;;;;;;;10.30;6.30;;;;;;;;;;106934;1275;22604;-85
2023/06/20 14:15:59;;;;;;;9.40;6.20;;;;;;;;;;107040;1275;25440;-83
2023/06/20 14:18:26;;;;;;;14.80;6.80;;;;;;;;;;107290;1275;24259;-85
2023/06/20 14:20:53;;;;;;;8.90;6.50;;;;;;;;;;107131;1275;22523;-81
2023/06/20 14:23:20;;;;;;;9.40;6.60;;;;;;;;;;107116;1272;25328;-84
2023/06/20 14:25:49;;;;;;;9.80;6.30;;;;;;;;;;107022;1275;25452;-84
2023/06/20 14:28:18;;;;;;;11.50;6.90;;;;;;;;;;107163;1274;22527;-84
2023/06/20 14:30:46;;;;;;;11.70;7.10;;;;;;;;;;107097;1275;25322;-80
2023/06/20 14:33:18;;;;;;;10.90;6.60;;;;;;;;;;107182;1257;21733;-79
2023/06/20 14:35:46;;;;;;;9.40;6.30;;;;;;;;;;107099;1272;22527;-86
2023/06/20 14:38:13;;;;;;;8.60;6.50;;;;;;;;;;106990;1275;22521;-82
2023/06/20 14:40:40;;;;;;;8.90;6.10;;;;;;;;;;107017;1275;22536;-84